Miguel Gomez

Recruteur en chef - Guarani
20 Févr 2028
Dimanche
Processus

Personnalité

Adaptabilité (9) Ambition (5) Controverse (17) Loyauté (4) Pression (15) Professionnalisme (17) Sportivité (4) Tempérament (14)

Profil

Style d'entraînement Démocratique
Diplôme Continental A
Détermination 9
Gestion des joueurs 4
Motivation 4
Discipline 5
Satisfaction professionnelle
100%
Fatigue
0%
Rôle Recruteur en chef
Salaire 32.1K p/s
Contrat 14.03.2029

Performance

Comportement Bon
Efficacité de l'entraînement
41%
Développement des joueurs
45%
Prévention des blessures
55%
Mise en place tactique
60%

Événements récents

A participé à une réunion de recrutement maintenant
A participé à une réunion de recrutement 7j
A participé à une réunion de recrutement 7j
A participé à une réunion de recrutement 7j
A participé à une réunion de recrutement 7j
A observé un match 7j
A participé à une réunion de recrutement 14j
A observé un match 14j

Suivi en cours

198
Joueur Club Statut Capacité Confiance Observé Dernière observation Dernier vote
Aleksi Piispa VPS Actif 92 / 100 40% 5 01.12.2027 -
Hernán Sanabria Barracas Central Perdu 82 / 98 40% 1 01.12.2027 -
Tomás Aranda Boca Juniors Actif 105 / 128 40% 1 30.11.2027 -
Kevin Angulo America de Cali Actif 102 / 118 40% 1 30.11.2027 -
Yeifer Herrera Leones Actif 83 / 96 40% 1 29.11.2027 -
Agustín Nogueira Barracas Central Actif 104 / 99 40% 1 29.11.2027 -
James Gonzalez Castellón Actif 98 / 103 40% 1 28.11.2027 -
Gonçalo Ribeiro Porto Actif 98 / 114 40% 1 28.11.2027 -
Dylan Moody Crewe Alexandra Actif 115 / 125 40% 5 27.11.2027 -
Felipe Igón Racing Club Actif 93 / 108 40% 1 27.11.2027 -
Franco Villalba Vélez Actif 105 / 107 40% 2 26.11.2027 -
Jeremías Florentín Talleres Actif 104 / 117 40% 3 26.11.2027 -
Luka Fuster Tigre Perdu 118 / 123 40% 2 25.11.2027 -
Jerónimo Gutiérrez Independiente Rivadavia Actif 89 / 94 40% 1 25.11.2027 -
Mamuka Zivzivadze Zugdidi Actif 91 / 79 40% 2 24.11.2027 -
Franco Barrionuevo Racing Club Actif 97 / 100 40% 2 23.11.2027 -
Lisandro Musso Central Córdoba SdE Actif 99 / 103 40% 1 23.11.2027 -
Juan Manuel Centurión Independiente Actif 84 / 102 40% 1 22.11.2027 -
Dylan Martínez River Plate Actif 86 / 109 40% 3 21.11.2027 -
Tiziano Van Der Tuin Estudiantes Actif 110 / 109 40% 2 21.11.2027 -
Damián Constanzo River Plate Actif 98 / 100 40% 1 19.11.2027 -
Thiago Parga Huracán Actif 87 / 107 40% 2 18.11.2027 -
Enrique Maza Atlético Tucumán Actif 97 / 115 40% 3 18.11.2027 -
Emiliano Zacca Deportivo Riestra Actif 100 / 97 40% 3 17.11.2027 -
Martín Díaz Lanús Actif 97 / 94 40% 1 17.11.2027 -
Matías Zorzoli Newell's Old Boys Actif 103 / 103 40% 1 14.11.2027 -
Danil Kuznetsov Dinamo Moscow Actif 70 / 81 40% 1 09.11.2027 -
Agustín Albrini Independiente Rivadavia Actif 99 / 97 40% 2 08.11.2027 -
Sabino González Sarmiento Actif 87 / 95 40% 2 07.11.2027 -
Gerardo Díaz San Martín SJ Actif 88 / 109 40% 2 05.11.2027 -
Lucas Wolfert Racing Club Actif 99 / 105 40% 1 05.11.2027 -
Marcos Ferreira Miramar Misiones Actif 93 / 101 40% 3 03.11.2027 -
César Bautista Sporting Cristal Actif 92 / 95 40% 1 29.10.2027 -
Máximo Leguizamón Tigre Actif 88 / 95 40% 5 27.10.2027 -
Valentín Motta Independiente Actif 80 / 94 40% 2 26.10.2027 -
Lionel Madriaga Belgrano Actif 96 / 95 40% 1 23.10.2027 -
Franco Yennerich Talleres Actif 83 / 99 40% 3 21.10.2027 -
Stevie Bausor Northampton Town Actif 127 / 121 40% 6 20.10.2027 -
Leonardo Sosa Rosario Central Actif 98 / 101 40% 2 17.10.2027 -
Jorge Sánchez Caracas Actif 105 / 99 40% 1 13.10.2027 -
Máximo Núñez Los Andes Actif 88 / 104 40% 1 13.10.2027 -
Thiago Perruisset Boca Juniors Actif 102 / 95 40% 1 12.10.2027 -
Ignacio Roldán Lanús Actif 100 / 95 40% 2 08.10.2027 -
Danilo Monza Sarmiento Actif 91 / 105 40% 1 08.10.2027 -
Tiziano Delias Sarmiento Actif 98 / 90 40% 3 07.10.2027 -
Thiago Nahuel Independiente Actif 96 / 100 40% 2 02.10.2027 -
Thiago Cano Banfield Actif 92 / 95 40% 2 01.10.2027 -
Ignacio Cardozo Vélez Actif 88 / 92 40% 1 29.09.2027 -
Martín D'Aurizio St. Pauli Actif 105 / 117 40% 3 27.09.2027 -
Lautaro Vera Platense Actif 103 / 108 40% 1 26.09.2027 -
Juan David Lázaro Real Santander Actif 82 / 93 40% 2 24.09.2027 -
Tomás Silva Lanús Actif 95 / 101 40% 1 24.09.2027 -
Uriel Ramos Defensa y Justicia Actif 97 / 104 40% 2 23.09.2027 -
Alexei Rojas Fedorushchenko Peterborough United Actif 111 / 118 40% 2 22.09.2027 -
Juan Pablo García Atlético Tucumán Actif 78 / 97 40% 1 20.09.2027 -
Paulo da Costa Penarol Actif 82 / 106 40% 1 20.09.2027 -
Carlos Nemocón Santa Fe Actif 79 / 102 40% 2 18.09.2027 -
Martín Almeida Montevideo City Torque Actif 95 / 107 40% 3 17.09.2027 -
Lautaro Martínez Racing Club Actif 83 / 90 40% 1 12.09.2027 -
Walter Molina Defensa y Justicia Actif 87 / 93 40% 2 11.09.2027 -
Ignacio Abarza Huracán Actif 87 / 97 40% 1 06.09.2027 -
Agustín Martínez Talleres Actif 82 / 101 40% 1 03.09.2027 -
Máximo Cabrera Gimnasia La Plata Actif 79 / 93 40% 1 03.09.2027 -
Tomás Chetelain Estudiantes Actif 84 / 100 40% 1 31.08.2027 -
Jeifer Nontoa Banfield Actif 84 / 92 40% 1 27.08.2027 -
Santino Gianoli Almirante Brown Actif 91 / 96 40% 3 26.08.2027 -
Emanuel Bonda Argentinos Juniors Actif 91 / 98 40% 1 24.08.2027 -
Axel Afonso Atlético Tucumán Actif 88 / 92 40% 1 17.08.2027 -
Luis Gómez Tigres Actif 87 / 91 40% 1 17.08.2027 -
Felipe Pontoni Talleres Actif 97 / 92 40% 1 10.08.2027 -
Ramiro Buratti River Plate Actif 86 / 104 40% 1 09.08.2027 -
Bernard Sulemana Hasaacas Actif 95 / 96 40% 1 08.08.2027 -
Anthony Cletus Bendel Insurance Actif 79 / 97 40% 1 03.08.2027 -
Kadad Ning Che Fortuna Mfou Actif 93 / 80 40% 1 03.08.2027 -
Christos Mouzakitis Hull City Actif 123 / 137 40% 1 31.05.2027 -
Joel Canchimbo Barranquilla Actif 112 / 120 40% 1 30.05.2027 -
Othmane Maamma Watford Actif 141 / 118 40% 6 29.05.2027 -
Joel McGregor Swindon Town Actif 108 / 107 40% 2 29.05.2027 -
Caleb Yirenkyi Coventry City Actif 134 / 129 40% 1 27.05.2027 -
Shea Lacey Wolverhampton Actif 133 / 126 40% 3 24.05.2027 -
Jan Bürger Gillingham Actif 115 / 109 40% 2 18.05.2027 -
Diogo Guzmán Montevideo City Torque Actif 111 / 110 40% 1 18.05.2027 -
Matías Gómez Granada Actif 108 / 120 40% 1 17.05.2027 -
Ethan Williams Peterborough United Actif 101 / 107 40% 3 15.05.2027 -
Riley Owen Trento Actif 87 / 106 40% 1 15.05.2027 -
Daniel Awuni Aduana Stars Actif 86 / 83 40% 1 13.05.2027 -
Lander Astiazarán Real Sociedad Actif 114 / 112 40% 1 11.05.2027 -
Percy Jali Free State Stars Actif 93 / 113 40% 1 11.05.2027 -
Christ Inao Oulaï Fiorentina Actif 135 / 127 40% 2 08.05.2027 -
Martim Cunha Porto Actif 96 / 98 40% 1 07.05.2027 -
Davide Bartesaghi AC Milan Actif 145 / 132 40% 1 06.05.2027 -
Thulani Dala Platinum Stars Actif 81 / 99 40% 1 06.05.2027 -
Oscar Schwartau Norwich City Actif 134 / 134 40% 1 04.05.2027 -
Calum Agius Crewe Alexandra Actif 78 / 96 40% 2 28.04.2027 -
Jayden Addai Como Actif 144 / 135 40% 1 28.04.2027 -
Mfundo Vilakazi Kaizer Chiefs Actif 103 / 123 40% 1 23.04.2027 -
Ruan Alanyaspor Actif 140 / 135 40% 2 20.04.2027 -
Jayden Luker Barnet Actif 89 / 92 40% 1 18.04.2027 -
Ishmael Addo Heart of Lions Actif 74 / 79 40% 1 14.04.2027 -
Leo Castledine Middlesbrough Actif 138 / 130 40% 1 14.04.2027 -
Araphat Mohammed Berekum Chelsea Actif 93 / 109 40% 1 09.04.2027 -
Monty Batlhabane Polokwane City Actif 80 / 91 40% 1 08.04.2027 -
Rocco Vata Watford Actif 138 / 116 40% 1 06.04.2027 -
Bosun Lawal Stoke City Actif 141 / 121 40% 1 28.12.2026 -
Valentino Acuña Newell's Old Boys Actif 110 / 114 40% 1 01.12.2026 -
Christian Krasnodar Actif 149 / 141 40% 2 30.11.2026 -
Rodrigo Bogarín Barracas Central Actif 117 / 119 40% 1 29.11.2026 -
Alex Vigo Independiente Rivadavia Actif 108 / 114 40% 2 28.11.2026 -
Alan Lescano Argentinos Juniors Actif 135 / 126 40% 1 28.11.2026 Plus d'infos
Ramiro Ruiz Rodríguez Atlético Tucumán Actif 120 / 123 40% 4 26.11.2026 -
Georginio Rutter Brighton Refusé 146 / 151 40% 1 25.11.2026 Plus d'infos
Renzo Tesuri Atlético Tucumán Actif 120 / 127 40% 1 24.11.2026 -
Carlos Vicente Birmingham Refusé 135 / 136 40% 1 23.11.2026 Plus d'infos
Antony Alonso Deportivo Riestra Actif 115 / 126 40% 1 22.11.2026 -
Rubén Duarte Legia Actif 127 / 118 40% 3 19.11.2026 -
Nazareno Kihm Ferro Carril Oeste Actif 120 / 123 40% 1 18.11.2026 -
Mandla Erasmus SuperSport United Actif 132 / 122 40% 1 16.11.2026 -
Alex Luna Instituto Actif 117 / 132 40% 1 15.11.2026 -
Claudio Bravo Argentinos Juniors Actif 111 / 123 40% 2 14.11.2026 -
Lewis Morgan SuperSport United Actif 128 / 131 40% 2 13.11.2026 -
Joaquín Gho Argentinos Juniors Actif 115 / 118 40% 2 13.11.2026 -
Agustín Fernández NK Zavrc Actif 90 / 95 40% 3 12.11.2026 -
Aarón Molinas Defensa y Justicia Actif 123 / 121 40% 2 12.11.2026 -
Santiago González Tigre Actif 125 / 130 40% 2 12.11.2026 -
Alan Coria Defensa y Justicia Actif 96 / 105 40% 3 09.11.2026 -
Nikolay Zlatev Cherno More Actif 115 / 93 40% 1 09.11.2026 -
Santiago Rodríguez Gimnasia y Esgrima Actif 119 / 113 40% 1 07.11.2026 -
Horacio Tijanovich Central Córdoba SdE Actif 114 / 111 40% 1 06.11.2026 -
Fernando Martínez Central Córdoba SdE Actif 113 / 121 40% 1 03.11.2026 -
Matías Viguet Maipú Actif 105 / 115 40% 1 03.11.2026 -
Matías Fernández Independiente Rivadavia Actif 112 / 128 40% 1 02.11.2026 -
Hansel Zapata Botev Plovdiv Actif 107 / 113 40% 2 01.11.2026 -
Enzo Acosta Estudiantes Actif 121 / 115 40% 1 31.10.2026 -
Hernán de la Fuente Instituto Actif 129 / 123 40% 1 31.10.2026 -
Francisco González Metilli Belgrano Actif 115 / 127 40% 3 30.10.2026 -
Nahuel Banegas Tigre Actif 111 / 113 40% 1 29.10.2026 -
Manuel Rodríguez Millonarios Actif 92 / 89 40% 1 28.10.2026 -
Dilan Godoy Vélez Actif 114 / 123 40% 1 28.10.2026 -
Santiago Rosales Mitre Actif 109 / 111 40% 1 28.10.2026 -
Gabriel Jesus Barcelona Actif 167 / 163 40% 2 27.10.2026 -
Adrián Spörle Belgrano Actif 118 / 118 40% 1 25.10.2026 -
Tshepang Moremi Orlando Pirates Actif 107 / 105 40% 1 23.10.2026 -
Matías Pellegrini Vélez Actif 113 / 120 40% 4 22.10.2026 -
Lukáš Červ Viktoria Plzen Actif 141 / 119 40% 1 22.10.2026 -
Juergen Elitím Bohemians 1905 Actif 125 / 114 40% 1 21.10.2026 -
Youssoufa Moukoko FC Copenhagen Actif 118 / 138 40% 1 19.10.2026 -
Mariano Bracamonte Deportivo Riestra Actif 120 / 124 40% 5 18.10.2026 -
Sergio Reguilón Inter Miami CF Actif 145 / 130 40% 2 18.10.2026 -
Thiago Salischiker Rucci HNK Vukovar 1991 Actif 74 / 94 40% 1 13.10.2026 -
Thiago Ponce Rosario Central Actif 99 / 104 40% 1 11.10.2026 -
Claudio Villagra Volos NPS Actif 118 / 116 40% 1 11.10.2026 -
Joaquín Pereyra Estudiantes Actif 100 / 95 40% 1 09.10.2026 -
Brais Méndez Columbus Crew Actif 160 / 152 40% 2 04.10.2026 -
Gonzalo Escudero Racing Club Actif 110 / 106 40% 1 02.10.2026 -
Tomás Chancalay Minnesota United FC Actif 115 / 120 40% 1 30.09.2026 -
Ryan Gauld Vancouver Whitecaps Actif 140 / 130 40% 1 29.09.2026 -
Bénie Traoré New York City Actif 114 / 119 40% 2 28.09.2026 -
Antonio Galeano Remo Stars Actif 134 / 114 40% 1 25.09.2026 -
Agustín Seyral Sarmiento Actif 90 / 93 40% 1 25.09.2026 -
Martín Ortega Atlético Tucumán Actif 82 / 94 40% 1 22.09.2026 -
Jonás Luna Santa Clara Actif 113 / 119 40% 1 22.09.2026 -
Antony Portland Timbers Actif 139 / 137 40% 3 19.09.2026 -
Juan Camilo Pérez Carabobo Actif 112 / 122 40% 1 17.09.2026 -
Lucas Souto Defensa y Justicia Actif 118 / 116 40% 2 15.09.2026 -
Santiago Rodríguez Columbus Crew Actif 132 / 128 40% 1 14.09.2026 -
Ezekiel Kwame Alladoh Philadelphia Union Actif 108 / 113 40% 1 14.09.2026 -
Ian Escobar Vélez Actif 86 / 89 40% 1 12.09.2026 -
Marcelo Saracchi Houston Dynamo Actif 131 / 120 40% 1 05.09.2026 -
Franco Domínguez Ávila Estudiantes Actif 80 / 101 40% 1 05.09.2026 -
Ricky Atletico Venezuela Actif 86 / 106 40% 1 02.09.2026 -
Tomás González Piast Actif 128 / 106 40% 1 29.08.2026 -
Ralph Orquin Seattle Sounders Actif 117 / 120 40% 1 29.08.2026 -
Paul Arriola Seattle Sounders Actif 124 / 123 40% 1 28.08.2026 -
Joshua Carabajal Barracas Central Actif 86 / 89 40% 1 28.08.2026 -
Román Albornoz Temperley Actif 76 / 93 40% 1 27.08.2026 -
Joaquín Toranzo Sarmiento Actif 81 / 92 40% 1 27.08.2026 -
Mario García Racing Santander Actif 126 / 110 40% 2 24.08.2026 -
Andy Polo Universitario Actif 117 / 124 40% 1 23.08.2026 -
Breel Embolo Atlanta United FC Actif 132 / 130 40% 1 23.08.2026 -
Jairo Concha Universitario Actif 118 / 114 40% 1 22.08.2026 -
Gerson Barreto Cienciano Actif 115 / 116 40% 1 22.08.2026 -
Santiago Luján Huracán Actif 112 / 112 40% 1 21.08.2026 -
Myrto Uzuni Austin FC Actif 122 / 127 40% 1 21.08.2026 -
Lucciano Reinoso Caracas Actif 80 / 100 40% 1 19.08.2026 -
Pavel Bucha FC Cincinnati Actif 127 / 137 40% 1 19.08.2026 -
Carlos Sosa Carabobo Actif 116 / 118 40% 1 18.08.2026 -
Paolo Reyna Universitario Actif 108 / 120 40% 1 18.08.2026 -
Román Zalazar Nueva Chicago Actif 98 / 96 40% 1 16.08.2026 -
Nazareno Roselli Defensa y Justicia Actif 111 / 114 40% 1 16.08.2026 -
Tomás Romero Unión de Santa Fe Actif 94 / 109 40% 2 14.08.2026 -
Hugo Ancajima Universitario Actif 117 / 117 40% 1 14.08.2026 -
Santiago Sosa Yung Sevilla Actif 120 / 122 40% 1 13.08.2026 -
Francisco Silva Temperley Actif 79 / 87 40% 1 10.08.2026 -
Jhamir D'Arrigo Melgar Actif 126 / 122 40% 1 09.08.2026 -
Alan Cantero Alianza Lima Actif 112 / 117 40% 1 04.08.2026 -
Oussama Idrissi Pachuca Actif 131 / 130 40% 1 02.08.2026 -
Álex Berenguer Athletic Bilbao Actif 157 / 147 40% 1 01.08.2026 -
Marcos Llorente Atlético Madrid Actif 146 / 148 40% 1 01.08.2026 -